Tiempo atmosférico en la estación meteorológica de Pedrosa Del Príncipe, Burgos (771 m.)



Fecha
DESCASC
Temp. máxima en grados centígrados (hora)
DESCASC
Temp. mínima en grados centígrados (hora)
DESCASC
Temp. media en grados centígrados
DESCASC
Racha de viento máxima en m/sg (hora)
DESCASC
Velocidad máxima media en intervalos de 10 minutos(hora)
DESCASC
Precipitaciones diarias en mm
DESCASC
Precipitaciones de 00:00 a 06:00 en mm
DESCASC
Precipitaciones de 06:00 a 12:00 en mm
DESCASC
Precipitaciones de 12:00 a 18:00 en mm
DESCASC
Precipitaciones de 18:00 a 24:00 en mm
DESCASC
22-11-2020 15.4 (16:20) -3.4 (08:10) 6 2.22 (12:40) 1.11 (21:20) 0 0 0 0 0
21-11-2020 15.5 (15:40) -1 (07:50) 7.3 7.22 (13:30) 4.44 (13:40) 0 0 0 0 0
20-11-2020 11.7 (14:40) 2.4 (22:40) 7 12.5 (12:40) 7.78 (12:40) 0 0 0 0 0
19-11-2020 16.5 (14:40) 3 (00:00) 9.8 8.89 (17:20) 5 (17:30) 0 0 0 0 0
18-11-2020 17.9 (15:40) 1.2 (00:00) 9.5 3.33 (16:40) 2.22 (16:50) 0 0 0 0 0
17-11-2020 16.6 (16:20) 1.2 (00:00) 8.9 2.78 (13:40) 1.67 (13:40) 0 0 0 0 0
16-11-2020 15.5 (14:10) 4.3 (00:00) 9.9 5.28 (10:20) 3.33 (10:20) 0 0 0 0 0
15-11-2020 15.7 (16:20) 11.4 (00:00) 13.5 12.78 (15:10) 7.5 (15:20) 0.6 0 0.4 0.2 0
14-11-2020 14 (17:10) 2.1 (00:00) 8 5.28 (23:30) 3.33 (23:00) 0.2 0 0 0 0.2
13-11-2020 15.7 (15:00) 3 (00:00) 9.3 4.72 (13:20) 2.78 (11:50) 0 0 0 0 0
12-11-2020 16.4 (16:20) 5.8 (00:00) 11.1 4.17 (13:40) 1.94 (13:30) 0 0 0 0 0
11-11-2020 11.9 (13:30) 1.8 (00:00) 6.8 7.5 (14:10) 4.44 (14:00) 0 0 0 0 0
10-11-2020 11.3 (15:00) 2.8 (00:00) 7.1 3.33 (14:00) 1.94 (14:00) 0.2 0 0.2 0 0
09-11-2020 13.7 (16:20) 7.7 (00:00) 10.7 6.11 (14:20) 3.33 (14:20) 2.6 2.6 0 0 0
08-11-2020 14.6 (15:00) 9.2 (00:00) 11.9 8.61 (11:20) 4.72 (13:10) 1.8 0 0 1 0.8
07-11-2020 15 (16:20) 10.4 (00:00) 12.7 10.83 (00:10) 5.83 (05:10) 4.6 4.4 0 0.2 0
06-11-2020 17 (16:20) 10.8 (00:00) 13.9 16.67 (21:40) 8.33 (14:20) 5 0 0 0 5
05-11-2020 13.4 (14:30) 5.5 (00:00) 9.4 11.67 (05:10) 6.67 (03:40) 1.6 0 0 0.2 1.4
04-11-2020 10.2 (15:10) 2.1 (00:00) 6.1 13.33 (15:00) 8.61 (12:40) 0 0 0 0 0
03-11-2020 13.7 (00:00) 3.5 (00:00) 8.6 12.5 (12:50) 7.5 (15:00) 0.2 0.2 0 0 0
02-11-2020 16.9 (16:40) 11.1 (00:00) 14 6.11 (10:20) 3.89 (10:20) 0 0 0 0 0
01-11-2020 17.7 (16:20) 5.4 (00:00) 11.6 5.28 (11:30) 3.33 (11:10) 0.2 0 0.2 0 0
31-10-2020 17.6 (16:00) 1.7 (00:00) 9.7 6.11 (16:20) 3.61 (14:30) 0 0 0 0 0
30-10-2020 17.7 (16:40) 0.6 (00:00) 9.2 6.94 (13:40) 3.61 (14:00) 0 0 0 0 0
29-10-2020 16.5 (16:00) 2 (00:00) 9.3 4.17 (14:10) 2.5 (13:20) 0 0 0 0 0
28-10-2020 16.2 (16:00) 7.4 (00:00) 11.8 10.56 (14:30) 5.83 (14:30) 0.8 0 0.6 0.2 0
27-10-2020 11.4 (14:20) 5.2 (00:00) 8.3 10.83 (14:20) 6.11 (14:20) 0.6 0 0 0.4 0.2

Gráficas

Temp. máximas Temp. mínimas Temp. medias Precipitaciones Rachas de viento máximas Velocidades máximas media en intervalos de 10 minutos

Datos horarios

Fecha y hora oficial Temperatura (ºC) Velocidad del viento (km/h) Dirección del viento Racha (km/h) Dirección de racha Precipitación (mm) Presión (hPa) Tendencia (hPa) Humedad (%)
2020-11-25 23:00:00 9.4 17 Sudeste 35 Sudeste 0 -- -- 73
2020-11-25 22:00:00 9.4 21 Sudeste 35 Sudeste 0 -- -- 71
2020-11-25 21:00:00 9.1 13 Sudeste 28 Sudeste 0 -- -- 69
2020-11-25 20:00:00 9.8 13 Sudeste 25 Sudeste 0 -- -- 66
2020-11-25 19:00:00 10.1 10 Sudeste 18 Sudeste 0 -- -- 63
2020-11-25 18:00:00 10.2 9 Sudeste 14 Sudeste 0 -- -- 61
2020-11-25 17:00:00 11.9 6 Sudeste 15 Sudeste 0 -- -- 56
2020-11-25 16:00:00 12.2 4 Sur 18 Sur 0 -- -- 53
2020-11-25 15:00:00 12.6 9 Sur 19 Sudeste 0 -- -- 52
2020-11-25 14:00:00 12.5 11 Sudeste 24 Sur 0 -- -- 53
2020-11-25 13:00:00 12 12 Sur 29 Sudeste 0 -- -- 57
2020-11-25 12:00:00 10.4 15 Sudeste 27 Sudeste 0 -- -- 66
2020-11-25 11:00:00 7.5 13 Sudeste 26 Sudeste 0 -- -- 79
2020-11-25 10:00:00 6.8 5 Sur 17 Sur 0 -- -- 83
2020-11-25 09:00:00 4.8 0 Calma 9 Sur 0 -- -- 92
2020-11-25 08:00:00 4.8 5 Sudeste 12 Sudeste 0 -- -- 96
2020-11-25 07:00:00 3.3 4 Sudeste 10 Sudeste 0 -- -- 98
2020-11-25 06:00:00 1.3 0 Calma 4 Este 0 -- -- 96
2020-11-25 05:00:00 0.8 2 Este 3 Noroeste 0 -- -- 96
2020-11-25 04:00:00 1.4 0 Calma 2 Noroeste 0 -- -- 95
2020-11-25 03:00:00 3.3 0 Calma 2 Nordeste 0 -- -- 95
2020-11-25 02:00:00 3.2 2 Nordeste 4 Este 0 -- -- 95
2020-11-25 01:00:00 1.6 0 Calma 4 Sudoeste 0 -- -- 96
2020-11-25 00:00:00 0.2 0 Calma 2 Este 0 -- -- 93
2020-11-24 23:00:00 0.9 0 Calma 3 Este 0 -- -- 91
2020-11-24 22:00:00 2.3 0 Calma 3 Este 0 -- -- 90
2020-11-24 21:00:00 4 0 Calma 2 Norte 0 -- -- 89
2020-11-24 20:00:00 5.4 0 Calma 5 Sudoeste 0 -- -- 86
2020-11-24 19:00:00 6 3 Oeste 9 Sudoeste 0 -- -- 85
2020-11-24 18:00:00 9 5 Sudoeste 9 Sudoeste 0 -- -- 77
2020-11-24 17:00:00 10.8 4 Oeste 14 Oeste 0 -- -- 71
2020-11-24 16:00:00 11.6 10 Oeste 20 Sudoeste 0 -- -- 66
2020-11-24 15:00:00 12.3 12 Oeste 26 Sudoeste 0 -- -- 60
2020-11-24 14:00:00 12 8 Oeste 16 Sudoeste 0 -- -- 60
2020-11-24 13:00:00 10.7 8 Sudoeste 15 Sudoeste 0 -- -- 62
2020-11-24 12:00:00 7.8 0 Calma 0 Calma 0 -- -- 72
2020-11-24 11:00:00 4.6 0 Calma 0 Calma 0 -- -- 82
2020-11-24 10:00:00 0.7 0 Calma 2 Nordeste 0 -- -- 92
2020-11-24 09:00:00 -2.4 0 Calma -- -- 0 -- -- 94
2020-11-24 08:00:00 -2.8 0 Calma -- -- 0 -- -- 93
2020-11-24 07:00:00 -2.6 0 Calma 0 Calma 0 -- -- 93
2020-11-24 06:00:00 -2.7 0 Calma -- -- 0 -- -- 93
2020-11-24 05:00:00 -2.3 0 Calma -- -- 0 -- -- 92
2020-11-24 04:00:00 -2.2 0 Calma -- -- 0 -- -- 92
2020-11-24 03:00:00 -2.1 0 Calma -- -- 0 -- -- 91
2020-11-24 02:00:00 -1.9 0 Calma 0 Calma 0 -- -- 90
2020-11-24 01:00:00 -1.4 0 Calma 0 Calma 0 -- -- 89
2020-11-24 00:00:00 -0.4 0 Calma 0 Calma 0 -- -- 86
2020-11-23 23:00:00 0.3 0 Calma 0 Calma 0 -- -- 83
2020-11-23 22:00:00 1.8 0 Calma 0 Calma 0 -- -- 77
2020-11-23 21:00:00 3 0 Calma 0 Calma 0 -- -- 73
2020-11-23 20:00:00 4.8 0 Calma 0 Calma 0 -- -- 72
2020-11-23 19:00:00 5.8 0 Calma 0 Calma 0 -- -- 70
2020-11-23 18:00:00 11.2 0 Calma 0 Calma 0 -- -- 57
2020-11-23 17:00:00 15.5 0 Calma 8 Noroeste 0 -- -- 41
2020-11-23 16:00:00 15.7 2 Sudoeste 5 Sudoeste 0 -- -- 38
2020-11-23 15:00:00 15.5 0 Calma 13 Noroeste 0 -- -- 39
2020-11-23 14:00:00 14.2 4 Noroeste 9 Noroeste 0 -- -- 44
2020-11-23 13:00:00 11.4 0 Calma 4 Sur 0 -- -- 61
2020-11-23 12:00:00 8.4 2 Este 5 Nordeste 0 -- -- 73
2020-11-23 11:00:00 5.4 0 Calma 3 Sudeste 0 -- -- 81
2020-11-23 10:00:00 1.1 0 Calma 2 Este 0 -- -- 95
2020-11-23 09:00:00 -3.4 0 Calma 3 Este 0 -- -- 95
2020-11-23 08:00:00 -3.6 0 Calma 0 Calma 0 -- -- 94
2020-11-23 07:00:00 -3.1 0 Calma 0 Calma 0 -- -- 93
2020-11-23 06:00:00 -2.9 0 Calma 2 Este 0 -- -- 93
2020-11-23 05:00:00 -2.3 0 Calma 2 Este 0 -- -- 94
2020-11-23 04:00:00 -1.9 0 Calma 2 Este 0 -- -- 93
2020-11-23 03:00:00 -1.7 0 Calma 2 Este 0 -- -- 92
2020-11-23 02:00:00 -1.4 0 Calma 3 Este 0 -- -- 91
2020-11-23 01:00:00 -0.8 0 Calma 2 Nordeste 0 -- -- 90
2020-11-23 00:00:00 -0.1 0 Calma 4 Este 0 -- -- 88
2020-11-22 23:00:00 1 0 Calma 4 Este 0 -- -- 85
2020-11-22 22:00:00 2.8 3 Este 7 Este 0 -- -- 82
2020-11-22 21:00:00 3 4 Este 6 Este 0 -- -- 82
2020-11-22 20:00:00 4.5 2 Este 5 Este 0 -- -- 77
2020-11-22 19:00:00 5.6 2 Este 2 Este 0 -- -- 73
2020-11-22 18:00:00 11.6 0 Calma 4 Noroeste 0 -- -- 57
2020-11-22 17:00:00 14.1 4 Noroeste 6 Noroeste 0 -- -- 49
2020-11-22 16:00:00 15 0 Calma 6 Sudoeste 0 -- -- 46
2020-11-22 15:00:00 14.3 2 Sudoeste 7 Noroeste 0 -- -- 50
2020-11-22 14:00:00 13.1 3 Oeste 8 Sudoeste 0 -- -- 49
2020-11-22 13:00:00 11.7 2 Sudoeste 8 Oeste 0 -- -- 52
2020-11-22 12:00:00 9 0 Calma 6 Sudoeste 0 -- -- 65
2020-11-22 11:00:00 5.7 2 Sudoeste 4 Sudoeste 0 -- -- 68
2020-11-22 10:00:00 1.2 0 Calma 2 Nordeste 0 -- -- 87
2020-11-22 09:00:00 -2.3 0 Calma 2 Sur 0 -- -- 94
2020-11-22 08:00:00 -3.3 0 Calma 0 Calma 0 -- -- 92
2020-11-22 07:00:00 -3 0 Calma -- -- 0 -- -- 91
2020-11-22 06:00:00 -2.5 0 Calma 4 Nordeste 0 -- -- 90
2020-11-22 05:00:00 -1.6 0 Calma 3 Sudoeste 0 -- -- 91
2020-11-22 04:00:00 -2 0 Calma 3 Este 0 -- -- 90
2020-11-22 03:00:00 -1.7 0 Calma 0 Calma 0 -- -- 89
2020-11-22 02:00:00 -1.1 0 Calma 3 Este 0 -- -- 87
2020-11-22 01:00:00 0 0 Calma 4 Este 0 -- -- 81
2020-11-22 00:00:00 1.3 0 Calma 5 Nordeste 0 -- -- 77
2020-11-21 23:00:00 2.3 4 Este 6 Este 0 -- -- 69
2020-11-21 22:00:00 3.9 3 Este 10 Nordeste 0 -- -- 64
2020-11-21 21:00:00 4.8 4 Este 14 Nordeste 0 -- -- 60
2020-11-21 20:00:00 5.2 9 Nordeste 17 Nordeste 0 -- -- 55
2020-11-21 19:00:00 6.3 6 Nordeste 10 Nordeste 0 -- -- 58
2020-11-21 18:00:00 10.8 4 Este 6 Nordeste 0 -- -- 47
2020-11-21 17:00:00 14.7 4 Este 12 Este 0 -- -- 38
2020-11-21 16:00:00 15.5 8 Este 17 Nordeste 0 -- -- 30
2020-11-21 15:00:00 15.3 10 Nordeste 21 Nordeste 0 -- -- 29
2020-11-21 14:00:00 14.6 13 Este 26 Este 0 -- -- 29
2020-11-21 13:00:00 13.7 13 Nordeste 25 Nordeste 0 -- -- 30
2020-11-21 12:00:00 11 6 Este 13 Este 0 -- -- 38
2020-11-21 11:00:00 7.3 3 Sur 8 Sudoeste 0 -- -- 52
2020-11-21 10:00:00 3.5 2 Oeste 7 Sudoeste 0 -- -- 70
2020-11-21 09:00:00 -0.5 2 Oeste 12 Nordeste 0 -- -- 88
2020-11-21 08:00:00 -1 5 Nordeste 9 Nordeste 0 -- -- 88
2020-11-21 07:00:00 -0.4 2 Nordeste 8 Nordeste 0 -- -- 87
2020-11-21 06:00:00 0.1 3 Nordeste 9 Nordeste 0 -- -- 86
2020-11-21 05:00:00 0.4 3 Nordeste 8 Nordeste 0 -- -- 88
2020-11-21 04:00:00 1 3 Nordeste 13 Nordeste 0 -- -- 86
2020-11-21 03:00:00 2 8 Nordeste 17 Nordeste 0 -- -- 87
2020-11-21 02:00:00 2 8 Nordeste 14 Nordeste 0 -- -- 93
2020-11-21 01:00:00 2.2 2 Nordeste 9 Este 0 -- -- 91
2020-11-21 00:00:00 2.9 3 Nordeste 10 Este 0 -- -- 90
2020-11-20 23:00:00 2.6 5 Nordeste 10 Este 0 -- -- 90
2020-11-20 22:00:00 3 5 Nordeste 12 Nordeste 0 -- -- 88
2020-11-20 21:00:00 4.1 8 Nordeste 16 Nordeste 0 -- -- 86
2020-11-20 20:00:00 5 5 Este 17 Nordeste 0 -- -- 81
2020-11-20 19:00:00 6.3 8 Este 17 Este 0 -- -- 77
2020-11-20 18:00:00 7.8 12 Este 24 Este 0 -- -- 72
2020-11-20 17:00:00 10.1 15 Este 27 Nordeste 0 -- -- 62
2020-11-20 16:00:00 11.4 12 Nordeste 28 Este 0 -- -- 58
2020-11-20 15:00:00 11.6 16 Nordeste 31 Nordeste 0 -- -- 59
2020-11-20 14:00:00 11.1 18 Nordeste 41 Este 0 -- -- 60
2020-11-20 13:00:00 10.3 21 Nordeste 45 Nordeste 0 -- -- 63
2020-11-20 12:00:00 9.3 24 Nordeste 41 Nordeste 0 -- -- 67
2020-11-20 11:00:00 8 23 Este 39 Este 0 -- -- 71
2020-11-20 10:00:00 6.6 14 Nordeste 25 Nordeste 0 -- -- 79
2020-11-20 09:00:00 3.8 9 Este 17 Nordeste 0 -- -- 88
2020-11-20 08:00:00 2.8 6 Este 14 Este 0 -- -- 90
2020-11-20 07:00:00 2.9 5 Este 11 Nordeste 0 -- -- 91
2020-11-20 06:00:00 4.1 5 Nordeste 31 Nordeste 0 -- -- 89
2020-11-20 05:00:00 4.3 9 Nordeste 17 Nordeste 0 -- -- 90
2020-11-20 04:00:00 4.5 4 Este 16 Nordeste 0 -- -- 86
2020-11-20 03:00:00 5.3 6 Nordeste 27 Nordeste 0 -- -- 84
2020-11-20 02:00:00 6.7 16 Nordeste 28 Norte 0 -- -- 79
2020-11-20 01:00:00 6.6 10 Nordeste 23 Este 0 -- -- 84
2020-11-20 00:00:00 5.9 12 Nordeste 28 Este 0 -- -- 88
2020-11-19 23:00:00 6.6 7 Nordeste 24 Nordeste 0 -- -- 86
2020-11-19 22:00:00 8.2 10 Nordeste 20 Este 0 -- -- 86
2020-11-19 21:00:00 8.8 9 Nordeste 23 Este 0 -- -- 85
2020-11-19 20:00:00 9 6 Nordeste 21 Este 0 -- -- 86
2020-11-19 19:00:00 10.2 14 Nordeste 28 Nordeste 0 -- -- 83
2020-11-19 18:00:00 10.8 15 Nordeste 32 Nordeste 0 -- -- 79
2020-11-19 17:00:00 13.8 15 Nordeste 29 Nordeste 0 -- -- 72
2020-11-19 16:00:00 15.5 12 Nordeste 23 Nordeste 0 -- -- 69
2020-11-19 15:00:00 16.4 10 Nordeste 18 Norte 0 -- -- 69
2020-11-19 14:00:00 16.2 9 Nordeste 21 Norte 0 -- -- 71
2020-11-19 13:00:00 15.1 10 Este 19 Nordeste 0 -- -- 74
2020-11-19 12:00:00 13.6 12 Nordeste 22 Nordeste 0 -- -- 83
2020-11-19 11:00:00 11.9 3 Nordeste 9 Este 0 -- -- 98
2020-11-19 10:00:00 7.4 0 Calma 4 Sudeste 0 -- -- 98
2020-11-19 09:00:00 3.4 0 Calma 3 Norte 0 -- -- 98
2020-11-19 08:00:00 4.1 0 Calma 4 Sudoeste 0 -- -- 96
2020-11-19 07:00:00 3.6 0 Calma 4 Nordeste 0 -- -- 96
2020-11-19 06:00:00 4.6 2 Nordeste 11 Nordeste 0 -- -- 96
2020-11-19 05:00:00 4.2 5 Nordeste 10 Este 0 -- -- 97
2020-11-19 04:00:00 3.2 0 Calma 7 Sudoeste 0 -- -- 95
2020-11-19 03:00:00 4.7 0 Calma 8 Nordeste 0 -- -- 96
2020-11-19 02:00:00 4 3 Nordeste 8 Nordeste 0 -- -- 95
2020-11-19 01:00:00 4.7 0 Calma 3 Sudoeste 0 -- -- 95
2020-11-19 00:00:00 5.1 0 Calma 6 Este 0 -- -- 95
2020-11-18 23:00:00 5.2 0 Calma 6 Este 0 -- -- 93
2020-11-18 22:00:00 5.3 0 Calma 4 Nordeste 0 -- -- 91
2020-11-18 21:00:00 6.5 0 Calma 6 Este 0 -- -- 90
2020-11-18 20:00:00 7.7 0 Calma 3 Sudeste 0 -- -- 87
2020-11-18 19:00:00 10.5 0 Calma 2 Este 0 -- -- 81
2020-11-18 18:00:00 13.9 0 Calma 10 Oeste 0 -- -- 73
2020-11-18 17:00:00 17.1 7 Oeste 12 Oeste 0 -- -- 62
2020-11-18 16:00:00 17.9 5 Oeste 10 Oeste 0 -- -- 62
2020-11-18 15:00:00 17.4 2 Sudoeste 9 Oeste 0 -- -- 64
2020-11-18 14:00:00 16.5 4 Oeste 11 Oeste 0 -- -- 67
2020-11-18 13:00:00 14.9 6 Oeste 10 Sudoeste 0 -- -- 71
2020-11-18 12:00:00 13.2 5 Sudoeste 9 Sudoeste 0 -- -- 74
2020-11-18 11:00:00 10.7 0 Calma 4 Sudoeste 0 -- -- 83
2020-11-18 10:00:00 6.8 2 Este 6 Nordeste 0 -- -- 98
2020-11-18 09:00:00 2.9 4 Nordeste 8 Nordeste 0 -- -- 98
2020-11-18 08:00:00 1.7 0 Calma 3 Este 0 -- -- 96
2020-11-18 07:00:00 1.7 0 Calma 4 Nordeste 0 -- -- 96
2020-11-18 06:00:00 2.3 0 Calma 4 Norte 0 -- -- 96
2020-11-18 05:00:00 1.4 0 Calma 2 Este 0 -- -- 96
2020-11-18 04:00:00 1.7 0 Calma 2 Nordeste 0 -- -- 95
2020-11-18 03:00:00 2.8 0 Calma 4 Sudoeste 0 -- -- 94
2020-11-18 02:00:00 2.8 0 Calma 3 Sudoeste 0 -- -- 95
2020-11-18 01:00:00 3 0 Calma 2 Nordeste 0 -- -- 93
2020-11-18 00:00:00 3.5 0 Calma 3 Este 0 -- -- 93
2020-11-17 23:00:00 4.4 0 Calma 5 Este 0 -- -- 91
2020-11-17 22:00:00 5 3 Este 4 Este 0 -- -- 91
2020-11-17 21:00:00 5.7 2 Este 5 Este 0 -- -- 89
2020-11-17 20:00:00 7.4 3 Este 6 Este 0 -- -- 86
2020-11-17 19:00:00 9.8 0 Calma 5 Sudeste 0 -- -- 78
2020-11-17 18:00:00 14.5 2 Sudoeste 4 Oeste 0 -- -- 70
2020-11-17 17:00:00 16.6 3 Oeste 8 Sudoeste 0 -- -- 64
2020-11-17 16:00:00 16.4 3 Sudoeste 10 Sudoeste 0 -- -- 65
2020-11-17 15:00:00 15.4 4 Oeste 10 Oeste 0 -- -- 71
2020-11-17 14:00:00 14.3 4 Oeste 10 Noroeste 0 -- -- 75
2020-11-17 13:00:00 12.1 3 Oeste 6 Oeste 0 -- -- 82
2020-11-17 12:00:00 8.3 3 Sudoeste 6 Sudoeste 0 -- -- 95
2020-11-17 11:00:00 5.7 2 Sudoeste 5 Oeste 0 -- -- 96
2020-11-17 10:00:00 3.9 0 Calma 2 Oeste 0 -- -- 98
2020-11-17 09:00:00 1.3 0 Calma 0 Calma 0 -- -- 97
2020-11-17 08:00:00 1.5 0 Calma 0 Calma 0 -- -- 97
2020-11-17 07:00:00 1.6 0 Calma 3 Este 0 -- -- 96
2020-11-17 06:00:00 1.8 0 Calma 0 Calma 0 -- -- 96
2020-11-17 05:00:00 1.6 0 Calma 0 Calma 0 -- -- 96
2020-11-17 04:00:00 2 0 Calma 2 Este 0 -- -- 95
2020-11-17 03:00:00 2 0 Calma 0 Calma 0 -- -- 95
2020-11-17 02:00:00 2.6 0 Calma 0 Calma 0 -- -- 95
2020-11-17 01:00:00 3.3 0 Calma 2 Este 0 -- -- 94
2020-11-17 00:00:00 4.3 0 Calma 5 Este 0 -- -- 93
2020-11-16 23:00:00 5.1 4 Este 6 Este 0 -- -- 94
2020-11-16 22:00:00 5.6 0 Calma 3 Este 0 -- -- 91
2020-11-16 21:00:00 7.2 2 Este 6 Este 0 -- -- 91
2020-11-16 20:00:00 7.5 0 Calma 5 Este 0 -- -- 87
2020-11-16 19:00:00 9.5 0 Calma 3 Sudeste 0 -- -- 82
2020-11-16 18:00:00 12.5 0 Calma 4 Noroeste 0 -- -- 77
2020-11-16 17:00:00 14.1 2 Noroeste 8 Noroeste 0 -- -- 68
2020-11-16 16:00:00 14.1 4 Norte 10 Noroeste 0 -- -- 67
2020-11-16 15:00:00 14.6 5 Norte 12 Oeste 0 -- -- 67
2020-11-16 14:00:00 15.4 3 Sudoeste 9 Noroeste 0 -- -- 65
2020-11-16 13:00:00 14.1 4 Sur 10 Nordeste 0 -- -- 70
2020-11-16 12:00:00 12.7 6 Este 14 Sudeste 0 -- -- 77
2020-11-16 11:00:00 12.3 9 Nordeste 19 Este 0 -- -- 82
2020-11-16 10:00:00 10.1 8 Nordeste 16 Este 0 -- -- 89
2020-11-16 09:00:00 8.5 6 Este 14 Este 0 -- -- 93
2020-11-16 08:00:00 8.4 7 Este 15 Nordeste 0 -- -- 92
2020-11-16 07:00:00 9.1 6 Nordeste 11 Este 0 -- -- 94
2020-11-16 06:00:00 9.1 3 Este 5 Nordeste 0 -- -- 91
2020-11-16 05:00:00 11 4 Norte 9 Norte 0 -- -- 91
2020-11-16 04:00:00 12 5 Sudoeste 10 Sudoeste 0 -- -- 90
2020-11-16 03:00:00 12.3 7 Sudoeste 12 Sudoeste 0 -- -- 93
2020-11-16 02:00:00 12.4 5 Sudoeste 13 Sudoeste 0 -- -- 93
2020-11-16 01:00:00 12.6 8 Sudoeste 15 Oeste 0 -- -- 92
2020-11-16 00:00:00 13.6 7 Oeste 27 Oeste 0 -- -- 90
2020-11-15 23:00:00 13.7 14 Oeste 32 Oeste 0 -- -- 90
2020-11-15 22:00:00 14.2 18 Oeste 34 Sudoeste 0 -- -- 87
2020-11-15 21:00:00 14.5 21 Sudoeste 36 Sudoeste 0 -- -- 85
2020-11-15 20:00:00 14.6 17 Sudoeste 33 Sudoeste 0 -- -- 85
2020-11-15 19:00:00 14.9 23 Sudoeste 43 Sudoeste 0 -- -- 83
2020-11-15 18:00:00 15.2 23 Sudoeste 45 Sudoeste 0 -- -- 83
2020-11-15 17:00:00 15.5 22 Sudoeste 41 Sudoeste 0 -- -- 82
2020-11-15 16:00:00 15.6 22 Sudoeste 46 Sudoeste 0 -- -- 82
2020-11-15 15:00:00 15.4 22 Sudoeste 44 Sudoeste 0 -- -- 83
2020-11-15 14:00:00 14.7 21 Sudoeste 38 Sudoeste 0.2 -- -- 87
2020-11-15 13:00:00 14.4 21 Sudoeste 40 Sudoeste 0 -- -- 90
2020-11-15 12:00:00 14.2 19 Sudoeste 35 Sudoeste 0.2 -- -- 90
2020-11-15 11:00:00 13.4 20 Sudoeste 39 Sudoeste 0.2 -- -- 90
2020-11-15 10:00:00 12.9 18 Sudoeste 36 Sudoeste 0 -- -- 90
2020-11-15 09:00:00 12.4 16 Sudoeste 24 Sudoeste 0 -- -- 90
2020-11-15 08:00:00 12.4 17 Sudoeste 31 Sur 0 -- -- 88
2020-11-15 07:00:00 12.2 17 Sudoeste 27 Sudoeste 0 -- -- 89
2020-11-15 06:00:00 11.6 14 Sudoeste 24 Sudoeste 0 -- -- 89
2020-11-15 05:00:00 11.6 11 Sudoeste 25 Sudoeste 0 -- -- 89
2020-11-15 04:00:00 11.6 12 Sudoeste 26 Sudoeste 0 -- -- 88
2020-11-15 03:00:00 11.6 9 Sudoeste 24 Sudoeste 0 -- -- 88
2020-11-15 02:00:00 11.7 13 Sudoeste 23 Sudoeste 0 -- -- 89
2020-11-15 01:00:00 11.6 11 Sudoeste 21 Sudoeste 0 -- -- 91
2020-11-15 00:00:00 11.9 12 Sudoeste 19 Sudoeste 0 -- -- 91
2020-11-14 23:00:00 12.2 12 Sudoeste 18 Sudoeste 0 -- -- 91
2020-11-14 22:00:00 12 5 Sudoeste 12 Sudoeste 0 -- -- 91
2020-11-14 21:00:00 11.2 2 Oeste 6 Sudoeste 0 -- -- 92
2020-11-14 20:00:00 11.7 4 Sur 6 Sur 0.2 -- -- 90
2020-11-14 19:00:00 12.2 4 Sudoeste 7 Sudoeste 0 -- -- 85
2020-11-14 18:00:00 12.8 4 Nordeste 6 Nordeste 0 -- -- 81
2020-11-14 17:00:00 13.7 0 Calma 9 Noroeste 0 -- -- 78
2020-11-14 16:00:00 13.3 4 Oeste 12 Sudoeste 0 -- -- 80
2020-11-14 15:00:00 13.3 8 Sudoeste 14 Sudoeste 0 -- -- 75
2020-11-14 14:00:00 12.7 8 Sudoeste 13 Sudoeste 0 -- -- 77
2020-11-14 13:00:00 11.1 4 Oeste 8 Oeste 0 -- -- 86
2020-11-14 12:00:00 9 3 Oeste 8 Sudoeste 0 -- -- 96
2020-11-14 11:00:00 7.6 0 Calma 8 Noroeste 0 -- -- 97
2020-11-14 10:00:00 5.9 0 Calma 5 Oeste 0 -- -- 98
2020-11-14 09:00:00 3.7 0 Calma 6 Este 0 -- -- 97
2020-11-14 08:00:00 2.7 5 Nordeste 9 Nordeste 0 -- -- 97
2020-11-14 07:00:00 2.3 4 Nordeste 6 Este 0 -- -- 97
2020-11-14 06:00:00 2.4 0 Calma 2 Sudeste 0 -- -- 96
2020-11-14 05:00:00 2.5 0 Calma 2 Este 0 -- -- 96
2020-11-14 04:00:00 2.3 0 Calma 0 Calma 0 -- -- 96
2020-11-14 03:00:00 2.4 0 Calma -- -- 0 -- -- 95
2020-11-14 02:00:00 3.1 0 Calma 3 Oeste 0 -- -- 95
2020-11-14 01:00:00 2.3 0 Calma 2 Sudoeste 0 -- -- 95
2020-11-14 00:00:00 3 0 Calma 4 Sudoeste 0 -- -- 94
2020-11-13 23:00:00 4.1 2 Este 5 Este 0 -- -- 93
2020-11-13 22:00:00 4.2 2 Este 3 Nordeste 0 -- -- 91
2020-11-13 21:00:00 6 2 Noroeste 3 Este 0 -- -- 89
2020-11-13 20:00:00 7.1 0 Calma 6 Oeste 0 -- -- 87
2020-11-13 19:00:00 9.1 2 Sudoeste 5 Oeste 0 -- -- 81
2020-11-13 18:00:00 13 2 Sudoeste 8 Oeste 0 -- -- 69
2020-11-13 17:00:00 15.2 7 Noroeste 13 Oeste 0 -- -- 62
2020-11-13 16:00:00 15.4 5 Noroeste 15 Oeste 0 -- -- 66
2020-11-13 15:00:00 15.7 5 Sudoeste 14 Oeste 0 -- -- 65
2020-11-13 14:00:00 14.8 7 Oeste 17 Sudoeste 0 -- -- 68
2020-11-13 13:00:00 13.8 5 Sudoeste 14 Oeste 0 -- -- 72
2020-11-13 12:00:00 11.9 9 Sudoeste 15 Sudoeste 0 -- -- 77
2020-11-13 11:00:00 10.2 3 Oeste 10 Sudoeste 0 -- -- 88
2020-11-13 10:00:00 7.2 3 Oeste 7 Sudoeste 0 -- -- 96
2020-11-13 09:00:00 6.4 0 Calma 8 Este 0 -- -- 97
2020-11-13 08:00:00 5.7 3 Este 7 Este 0 -- -- 96
2020-11-13 07:00:00 5.4 3 Este 4 Nordeste 0 -- -- 96
2020-11-13 06:00:00 6.1 2 Sur 7 Sur 0 -- -- 96
2020-11-13 05:00:00 5.9 4 Oeste 6 Oeste 0 -- -- 96
2020-11-13 04:00:00 5.1 0 Calma 5 Este 0 -- -- 95
2020-11-13 03:00:00 5.5 4 Este 5 Este 0 -- -- 95
2020-11-13 02:00:00 6 0 Calma 2 Sudeste 0 -- -- 95
2020-11-13 01:00:00 6.4 0 Calma 3 Nordeste 0 -- -- 94
2020-11-13 00:00:00 7 0 Calma 6 Nordeste 0 -- -- 94
2020-11-12 23:00:00 7.2 2 Nordeste 4 Nordeste 0 -- -- 93
2020-11-12 22:00:00 7.8 3 Este 5 Este 0 -- -- 93
2020-11-12 21:00:00 8 0 Calma 4 Nordeste 0 -- -- 93
2020-11-12 20:00:00 8.3 3 Este 4 Este 0 -- -- 90
2020-11-12 19:00:00 9.5 0 Calma 4 Norte 0 -- -- 86
2020-11-12 18:00:00 12.8 0 Calma 3 Este 0 -- -- 77
2020-11-12 17:00:00 15.5 0 Calma 7 Oeste 0 -- -- 66
2020-11-12 16:00:00 16.3 2 Oeste 10 Sudoeste 0 -- -- 65
2020-11-12 15:00:00 15.9 3 Oeste 10 Oeste 0 -- -- 68
2020-11-12 14:00:00 15.5 5 Sudoeste 15 Sudoeste 0 -- -- 68
2020-11-12 13:00:00 14.5 6 Sudoeste 12 Sudoeste 0 -- -- 70
2020-11-12 12:00:00 13 3 Sur 6 Sudoeste 0 -- -- 75
2020-11-12 11:00:00 11.2 3 Sudoeste 6 Sudoeste 0 -- -- 77
2020-11-12 10:00:00 8.9 0 Calma 3 Noroeste 0 -- -- 94
2020-11-12 09:00:00 6.2 0 Calma 2 Sudeste 0 -- -- 97
2020-11-12 08:00:00 6.4 0 Calma 3 Este 0 -- -- 96
2020-11-12 07:00:00 6.7 0 Calma 4 Norte 0 -- -- 96
2020-11-12 06:00:00 6.3 0 Calma 3 Nordeste 0 -- -- 96
2020-11-12 05:00:00 6.2 2 Este 3 Este 0 -- -- 96
2020-11-12 04:00:00 6.6 0 Calma 2 Este 0 -- -- 96
2020-11-12 03:00:00 6.6 0 Calma 3 Este 0 -- -- 96
2020-11-12 02:00:00 6.3 0 Calma 2 Noroeste 0 -- -- 95
2020-11-12 01:00:00 6.7 0 Calma 0 Calma 0 -- -- 95
2020-11-12 00:00:00 6.9 0 Calma 2 Este 0 -- -- 95
2020-11-11 23:00:00 6.9 0 Calma 3 Oeste 0 -- -- 94
2020-11-11 22:00:00 7.1 2 Oeste 3 Noroeste 0 -- -- 94
2020-11-11 21:00:00 7.1 0 Calma 4 Sudoeste 0 -- -- 93
2020-11-11 20:00:00 7.5 0 Calma 8 Sudoeste 0 -- -- 91
2020-11-11 19:00:00 8.4 2 Oeste 11 Sudoeste 0 -- -- 88
2020-11-11 18:00:00 9.3 3 Sudoeste 10 Sudoeste 0 -- -- 86
2020-11-11 17:00:00 10.4 6 Sudoeste 13 Oeste 0 -- -- 81
2020-11-11 16:00:00 10.7 8 Sudoeste 15 Oeste 0 -- -- 78
2020-11-11 15:00:00 10.2 9 Oeste 27 Noroeste 0 -- -- 79
2020-11-11 14:00:00 11.1 16 Oeste 24 Oeste 0 -- -- 80
2020-11-11 13:00:00 11.1 6 Sudoeste 13 Sudoeste 0 -- -- 83
2020-11-11 12:00:00 8 3 Sudoeste 8 Sudoeste 0 -- -- 95
2020-11-11 11:00:00 7.2 5 Sudoeste 10 Sudoeste 0 -- -- 97
2020-11-11 10:00:00 5.8 2 Oeste 5 Sudoeste 0 -- -- 97
2020-11-11 09:00:00 5 2 Oeste 4 Oeste 0 -- -- 97
2020-11-11 08:00:00 4.4 0 Calma 4 Este 0 -- -- 97
2020-11-11 07:00:00 3.8 2 Este 4 Nordeste 0 -- -- 97
2020-11-11 06:00:00 3.5 3 Nordeste 4 Nordeste 0 -- -- 97
2020-11-11 05:00:00 2.8 0 Calma 2 Oeste 0 -- -- 97
2020-11-11 04:00:00 2.2 0 Calma 0 Calma 0 -- -- 96
2020-11-11 03:00:00 2 0 Calma 0 Calma 0 -- -- 95
2020-11-11 02:00:00 3.1 0 Calma 3 Sur 0 -- -- 95
2020-11-11 01:00:00 3 0 Calma 4 Norte 0 -- -- 95
2020-11-11 00:00:00 3.4 2 Este 3 Este 0 -- -- 95
2020-11-10 23:00:00 2.9 0 Calma 3 Sudeste 0 -- -- 95
2020-11-10 22:00:00 3.6 0 Calma 5 Este 0 -- -- 93
2020-11-10 21:00:00 4.9 0 Calma 2 Sur 0 -- -- 91
2020-11-10 20:00:00 6.2 0 Calma 4 Sudeste 0 -- -- 90
2020-11-10 19:00:00 7.7 0 Calma 4 Oeste 0 -- -- 87
2020-11-10 18:00:00 10.2 2 Oeste 9 Sudoeste 0 -- -- 83
2020-11-10 17:00:00 11.1 4 Sudoeste 9 Sudoeste 0 -- -- 79
2020-11-10 16:00:00 11.2 4 Oeste 12 Oeste 0 -- -- 81
2020-11-10 15:00:00 11.3 5 Oeste 11 Oeste 0 -- -- 82
2020-11-10 14:00:00 10.9 7 Oeste 12 Sudoeste 0 -- -- 83
2020-11-10 13:00:00 10.7 0 Calma 6 Oeste 0 -- -- 84
2020-11-10 12:00:00 9.9 3 Sudoeste 6 Sudoeste 0 -- -- 94
2020-11-10 11:00:00 8.7 0 Calma 5 Sur 0 -- -- 97
2020-11-10 10:00:00 8.1 0 Calma 4 Nordeste 0 -- -- 97
2020-11-10 09:00:00 7.4 0 Calma 4 Nordeste 0 -- -- 97
2020-11-10 08:00:00 6.9 0 Calma 4 Norte 0 -- -- 97
2020-11-10 07:00:00 6.7 0 Calma 0 Calma 0.2 -- -- 97
2020-11-10 06:00:00 6 0 Calma 3 Sudeste 0 -- -- 96
2020-11-10 05:00:00 5 0 Calma 3 Nordeste 0 -- -- 96
2020-11-10 04:00:00 4.1 0 Calma 2 Nordeste 0 -- -- 94
2020-11-10 03:00:00 4.4 0 Calma 2 Este 0 -- -- 94
2020-11-10 02:00:00 5.5 0 Calma 2 Sudeste 0 -- -- 93
2020-11-10 01:00:00 7 2 Nordeste 4 Nordeste 0 -- -- 94
2020-11-10 00:00:00 7.7 0 Calma 2 Oeste 0 -- -- 94
2020-11-09 23:00:00 8.2 0 Calma 5 Nordeste 0 -- -- 94
2020-11-09 22:00:00 8.1 5 Este 8 Este 0 -- -- 93
2020-11-09 21:00:00 8.9 0 Calma 4 Sur 0 -- -- 89
2020-11-09 20:00:00 10.4 3 Sudoeste 5 Oeste 0 -- -- 89
2020-11-09 19:00:00 11.1 3 Sudoeste 5 Sudoeste 0 -- -- 85
2020-11-09 18:00:00 11.9 2 Sudoeste 6 Sudoeste 0 -- -- 81
2020-11-09 17:00:00 13.1 4 Sudoeste 14 Oeste 0 -- -- 74
2020-11-09 16:00:00 13.3 10 Oeste 16 Oeste 0 -- -- 74
2020-11-09 15:00:00 12.7 8 Oeste 22 Oeste 0 -- -- 77
2020-11-09 14:00:00 13.1 10 Oeste 21 Sudoeste 0 -- -- 78
2020-11-09 13:00:00 12.4 6 Oeste 19 Oeste 0 -- -- 82
2020-11-09 12:00:00 12 8 Oeste 14 Oeste 0 -- -- 84
2020-11-09 11:00:00 11 7 Sudoeste 14 Sudoeste 0 -- -- 93
2020-11-09 10:00:00 10.1 5 Sudoeste 9 Sudoeste 0 -- -- 96
2020-11-09 09:00:00 8.7 0 Calma 3 Norte 0 -- -- 96
2020-11-09 08:00:00 7.7 0 Calma 6 Sudoeste 0 -- -- 94
2020-11-09 07:00:00 8.1 2 Sudoeste 6 Sudeste 0 -- -- 94
2020-11-09 06:00:00 9.2 0 Calma 5 Noroeste 0 -- -- 93
2020-11-09 05:00:00 9.6 0 Calma 4 Sudoeste 2.2 -- -- 93
2020-11-09 04:00:00 9.8 2 Oeste 9 Sur 0.4 -- -- 91
2020-11-09 03:00:00 10.2 6 Sur 14 Sur 0 -- -- 86
2020-11-09 02:00:00 10.3 4 Sudoeste 10 Sur 0 -- -- 84
2020-11-09 01:00:00 10.7 8 Sudoeste 16 Sudoeste 0 -- -- 83
2020-11-09 00:00:00 10.7 8 Sudoeste 18 Sur 0 -- -- 82
2020-11-08 23:00:00 10.6 4 Sudoeste 14 Sudoeste 0 -- -- 85
2020-11-08 22:00:00 10.6 5 Sudoeste 18 Sudoeste 0.4 -- -- 86
2020-11-08 21:00:00 11.1 12 Sudoeste 20 Sudoeste 0.4 -- -- 85
2020-11-08 20:00:00 11.5 4 Sudoeste 11 Sudoeste 0 -- -- 85
2020-11-08 19:00:00 11.9 7 Sudoeste 21 Sur 0 -- -- 80
2020-11-08 18:00:00 12.6 12 Sudoeste 20 Sudoeste 0 -- -- 77
2020-11-08 17:00:00 13.2 6 Sudoeste 16 Sudoeste 0.2 -- -- 79
2020-11-08 16:00:00 12.7 9 Sudoeste 26 Oeste 0.8 -- -- 81
2020-11-08 15:00:00 14.6 11 Sur 21 Sur 0 -- -- 67
2020-11-08 14:00:00 13.7 12 Sudoeste 29 Sur 0 -- -- 72
2020-11-08 13:00:00 14.2 14 Sur 28 Sudoeste 0 -- -- 68
2020-11-08 12:00:00 13.5 13 Sudoeste 31 Sur 0 -- -- 71
2020-11-08 11:00:00 12.4 15 Sur 27 Sur 0 -- -- 71
2020-11-08 10:00:00 11.4 9 Sur 21 Sur 0 -- -- 74
2020-11-08 09:00:00 9.5 4 Sur 13 Sur 0 -- -- 81
2020-11-08 08:00:00 9.2 8 Sur 15 Sur 0 -- -- 84
2020-11-08 07:00:00 9.9 8 Sur 18 Sudeste 0 -- -- 82
2020-11-08 06:00:00 10.4 7 Sur 19 Sur 0 -- -- 80
2020-11-08 05:00:00 10.2 11 Sur 21 Sudeste 0 -- -- 81
2020-11-08 04:00:00 9.7 6 Sur 17 Sudoeste 0 -- -- 84
2020-11-08 03:00:00 10.1 8 Sur 15 Sudeste 0 -- -- 84
2020-11-08 02:00:00 10.4 0 Calma 18 Sudoeste 0 -- -- 84
2020-11-08 01:00:00 10.8 13 Sudoeste 21 Sudoeste 0 -- -- 82
2020-11-08 00:00:00 10.5 6 Sudoeste 21 Sudoeste 0 -- -- 83
2020-11-07 23:00:00 10.5 11 Sudoeste 22 Sudoeste 0 -- -- 83
2020-11-07 22:00:00 11.3 8 Sudoeste 18 Sudoeste 0 -- -- 77
2020-11-07 21:00:00 11.8 12 Sudoeste 21 Sudoeste 0 -- -- 82
2020-11-07 20:00:00 11.1 4 Sudoeste 10 Sudoeste 0 -- -- 83
2020-11-07 19:00:00 11.4 6 Sudoeste 12 Sudoeste 0 -- -- 81
2020-11-07 18:00:00 12.9 9 Sudoeste 25 Sudoeste 0 -- -- 75
2020-11-07 17:00:00 14.3 13 Oeste 35 Oeste 0 -- -- 71
2020-11-07 16:00:00 14.5 21 Sudoeste 38 Sudoeste 0 -- -- 70
2020-11-07 15:00:00 13.2 17 Sudoeste 33 Oeste 0 -- -- 77
2020-11-07 14:00:00 13.9 19 Sudoeste 34 Sudoeste 0 -- -- 75
2020-11-07 13:00:00 12.2 13 Sudoeste 35 Oeste 0.2 -- -- 85
2020-11-07 12:00:00 13.3 16 Sudoeste 28 Oeste 0 -- -- 78
2020-11-07 11:00:00 11.6 5 Sudoeste 13 Oeste 0 -- -- 88
2020-11-07 10:00:00 11.5 6 Sudoeste 10 Sudoeste 0 -- -- 86
2020-11-07 09:00:00 11.1 4 Oeste 17 Sur 0 -- -- 85
2020-11-07 08:00:00 11.3 9 Sur 25 Sudeste 0 -- -- 83
2020-11-07 07:00:00 11.4 13 Sur 31 Sudeste 0 -- -- 82
2020-11-07 06:00:00 11.3 19 Sudeste 36 Sudeste 0 -- -- 85
2020-11-07 05:00:00 11.7 21 Sudeste 35 Sudeste 1 -- -- 86
2020-11-07 04:00:00 12.4 18 Sudeste 31 Sur 2.2 -- -- 88
2020-11-07 03:00:00 12.9 14 Sudeste 25 Sur 0 -- -- 85
2020-11-07 02:00:00 13.4 12 Sur 28 Sur 0.2 -- -- 82
2020-11-07 01:00:00 13.4 15 Sudeste 39 Sudeste 1 -- -- 83
2020-11-07 00:00:00 13.5 20 Sudeste 37 Sudeste 0 -- -- 82
2020-11-06 23:00:00 12.4 19 Sudeste 40 Sudeste 1 -- -- 85
2020-11-06 22:00:00 12.1 24 Sur 60 Sudoeste 4 -- -- 80
2020-11-06 21:00:00 15.8 18 Sudeste 47 Sudeste 0 -- -- 70
2020-11-06 20:00:00 15.7 24 Sudeste 47 Sudeste 0 -- -- 73
2020-11-06 19:00:00 16.1 22 Sudeste 40 Sudeste 0 -- -- 73
2020-11-06 18:00:00 16.1 17 Sudeste 30 Sudeste 0 -- -- 74
2020-11-06 17:00:00 16.9 18 Sudeste 33 Sudeste 0 -- -- 71
2020-11-06 16:00:00 16.8 18 Sudeste 48 Sudeste 0 -- -- 70
2020-11-06 15:00:00 16.1 21 Sudeste 48 Sudeste 0 -- -- 71
2020-11-06 14:00:00 16 28 Sudeste 45 Sudeste 0 -- -- 69
2020-11-06 13:00:00 15.7 15 Sudeste 36 Sudeste 0 -- -- 70
2020-11-06 12:00:00 15.8 17 Sudeste 35 Sudeste 0 -- -- 70
2020-11-06 11:00:00 14.4 17 Sudeste 37 Sudeste 0 -- -- 75
2020-11-06 10:00:00 12.8 18 Sudeste 35 Este 0 -- -- 80
2020-11-06 09:00:00 12.2 24 Sudeste 43 Sudeste 0 -- -- 80
2020-11-06 08:00:00 11.3 25 Sudeste 43 Sudeste 0 -- -- 82
2020-11-06 07:00:00 11.3 20 Sudeste 40 Sudeste 0 -- -- 81
2020-11-06 06:00:00 11.2 22 Sudeste 44 Sur 0 -- -- 82
2020-11-06 05:00:00 11.5 22 Sudeste 44 Sudeste 0 -- -- 80
2020-11-06 04:00:00 11.6 23 Sudeste 41 Sudeste 0 -- -- 80
2020-11-06 03:00:00 10.8 21 Sudeste 44 Sudeste 0 -- -- 84
2020-11-06 02:00:00 11.1 23 Sudeste 42 Sudeste 0 -- -- 83
2020-11-06 01:00:00 11.3 22 Sudeste 36 Sudeste 0 -- -- 82
2020-11-06 00:00:00 11.5 18 Sudeste 35 Sudeste 0.2 -- -- 83
2020-11-05 23:00:00 9.9 9 Este 17 Este 0.4 -- -- 92
2020-11-05 22:00:00 9.2 8 Este 14 Nordeste 0.6 -- -- 92
2020-11-05 21:00:00 8.8 8 Nordeste 25 Este 0 -- -- 90
2020-11-05 20:00:00 9.4 10 Nordeste 20 Este 0.2 -- -- 88
2020-11-05 19:00:00 10.1 12 Este 20 Este 0 -- -- 85
2020-11-05 18:00:00 10.6 10 Nordeste 19 Nordeste 0.2 -- -- 86
2020-11-05 17:00:00 12.3 9 Nordeste 24 Este 0 -- -- 76
2020-11-05 16:00:00 12.6 12 Este 30 Este 0 -- -- 76
2020-11-05 15:00:00 13.2 16 Este 30 Este 0 -- -- 70
2020-11-05 14:00:00 12.9 19 Este 35 Este 0 -- -- 70
2020-11-05 13:00:00 12.2 18 Este 36 Nordeste 0 -- -- 72
2020-11-05 12:00:00 9.9 21 Este 39 Este 0 -- -- 79
2020-11-05 11:00:00 9.6 17 Este 30 Este 0 -- -- 81
2020-11-05 10:00:00 8.4 21 Este 34 Este 0 -- -- 86
2020-11-05 09:00:00 6.8 16 Nordeste 33 Nordeste 0 -- -- 91
2020-11-05 08:00:00 6.3 17 Este 30 Este 0 -- -- 91
2020-11-05 07:00:00 6.2 20 Nordeste 35 Este 0 -- -- 91
2020-11-05 06:00:00 6 17 Este 42 Este 0 -- -- 91
2020-11-05 05:00:00 5.6 20 Este 39 Este 0 -- -- 90
2020-11-05 04:00:00 5.9 23 Nordeste 40 Nordeste 0 -- -- 88
2020-11-05 03:00:00 5.8 21 Nordeste 41 Este 0 -- -- 87
2020-11-05 02:00:00 5.8 22 Nordeste 37 Este 0 -- -- 86
2020-11-05 01:00:00 5.7 22 Nordeste 39 Nordeste 0 -- -- 84
2020-11-05 00:00:00 5.6 19 Nordeste 38 Nordeste 0 -- -- 83
2020-11-04 23:00:00 5.6 17 Nordeste 36 Nordeste 0 -- -- 82
2020-11-04 22:00:00 5.9 22 Nordeste 39 Nordeste 0 -- -- 79
2020-11-04 21:00:00 6.2 21 Nordeste 43 Este 0 -- -- 77
2020-11-04 20:00:00 6.1 22 Nordeste 36 Nordeste 0 -- -- 75
2020-11-04 19:00:00 6 21 Nordeste 41 Nordeste 0 -- -- 73
2020-11-04 18:00:00 6.8 22 Nordeste 45 Nordeste 0 -- -- 71
2020-11-04 17:00:00 8 23 Nordeste 44 Este 0 -- -- 65
2020-11-04 16:00:00 8.2 27 Nordeste 46 Este 0 -- -- 62
2020-11-04 15:00:00 9.8 31 Nordeste 48 Este 0 -- -- 58
2020-11-04 14:00:00 9.7 26 Nordeste 46 Nordeste 0 -- -- 58
2020-11-04 13:00:00 9.4 30 Este 47 Este 0 -- -- 60
2020-11-04 12:00:00 8 20 Nordeste 42 Este 0 -- -- 71
2020-11-04 11:00:00 7.8 19 Nordeste 38 Nordeste 0 -- -- 72
2020-11-04 10:00:00 5.7 16 Nordeste 30 Nordeste 0 -- -- 84
2020-11-04 09:00:00 4.4 12 Nordeste 21 Nordeste 0 -- -- 88
2020-11-04 08:00:00 2.9 7 Nordeste 19 Nordeste 0 -- -- 89
2020-11-04 07:00:00 3.5 10 Nordeste 21 Nordeste 0 -- -- 89
2020-11-04 06:00:00 3.4 9 Nordeste 21 Nordeste 0 -- -- 89
2020-11-04 05:00:00 3.6 9 Nordeste 22 Nordeste 0 -- -- 88
2020-11-04 04:00:00 2.1 8 Nordeste 18 Nordeste 0 -- -- 92
2020-11-04 03:00:00 2.7 8 Nordeste 22 Nordeste 0 -- -- 89
2020-11-04 02:00:00 2.2 6 Nordeste 15 Nordeste 0 -- -- 91
2020-11-04 01:00:00 3 8 Nordeste 16 Nordeste 0 -- -- 91
2020-11-04 00:00:00 3.8 9 Nordeste 22 Este 0 -- -- 90
2020-11-03 23:00:00 3.7 9 Este 22 Nordeste 0 -- -- 89
2020-11-03 22:00:00 4.4 11 Nordeste 23 Nordeste 0 -- -- 87
2020-11-03 21:00:00 4.7 10 Nordeste 29 Nordeste 0 -- -- 86
2020-11-03 20:00:00 5.5 14 Nordeste 31 Este 0 -- -- 85
2020-11-03 19:00:00 6.3 17 Nordeste 39 Nordeste 0 -- -- 82
2020-11-03 18:00:00 7.5 17 Nordeste 37 Nordeste 0 -- -- 77
2020-11-03 17:00:00 9.7 19 Nordeste 42 Nordeste 0 -- -- 71
2020-11-03 16:00:00 11.2 25 Nordeste 44 Nordeste 0 -- -- 67
2020-11-03 15:00:00 11.7 27 Nordeste 42 Nordeste 0 -- -- 66
2020-11-03 14:00:00 11.9 24 Nordeste 42 Nordeste 0 -- -- 65
2020-11-03 13:00:00 12.5 22 Nordeste 45 Nordeste 0 -- -- 65
2020-11-03 12:00:00 11 19 Nordeste 44 Nordeste 0 -- -- 67
2020-11-03 11:00:00 11 18 Nordeste 36 Nordeste 0 -- -- 66
2020-11-03 10:00:00 8.4 16 Nordeste 32 Nordeste 0 -- -- 73
2020-11-03 09:00:00 8.3 14 Nordeste 32 Nordeste 0 -- -- 78
2020-11-03 08:00:00 8.3 15 Nordeste 32 Nordeste 0 -- -- 86
2020-11-03 07:00:00 8.6 13 Nordeste 33 Nordeste 0 -- -- 87
2020-11-03 06:00:00 9 12 Nordeste 26 Este 0 -- -- 87
2020-11-03 05:00:00 9.1 14 Nordeste 28 Nordeste 0 -- -- 89
2020-11-03 04:00:00 9.4 17 Nordeste 30 Nordeste 0 -- -- 90
2020-11-03 03:00:00 9.7 13 Nordeste 22 Nordeste 0 -- -- 93
2020-11-03 02:00:00 9.5 13 Nordeste 33 Norte 0.2 -- -- 93
2020-11-03 01:00:00 11.6 11 Norte 23 Norte 0 -- -- 89
2020-11-03 00:00:00 13.7 3 Noroeste 12 Sudoeste 0 -- -- 89
2020-11-02 23:00:00 14.3 4 Sudoeste 11 Sur 0 -- -- 84
2020-11-02 22:00:00 14.1 3 Sudoeste 8 Sur 0 -- -- 85
2020-11-02 21:00:00 13.9 0 Calma 7 Sur 0 -- -- 87
2020-11-02 20:00:00 13.1 0 Calma 5 Nordeste 0 -- -- 89
2020-11-02 19:00:00 13.5 4 Este 8 Este 0 -- -- 87
2020-11-02 18:00:00 14.7 2 Este 8 Este 0 -- -- 81
2020-11-02 17:00:00 16.5 3 Nordeste 6 Este 0 -- -- 77
2020-11-02 16:00:00 16 0 Calma 7 Oeste 0 -- -- 79
2020-11-02 15:00:00 16.3 5 Oeste 14 Oeste 0 -- -- 78
2020-11-02 14:00:00 14.9 7 Oeste 17 Sudoeste 0 -- -- 83
2020-11-02 13:00:00 14.5 8 Oeste 22 Sudoeste 0 -- -- 84
2020-11-02 12:00:00 14.4 11 Oeste 22 Sudoeste 0 -- -- 84
2020-11-02 11:00:00 13.9 11 Sudoeste 22 Sudoeste 0 -- -- 86
2020-11-02 10:00:00 12.8 12 Sudoeste 21 Sudoeste 0 -- -- 91
2020-11-02 09:00:00 12 6 Sudoeste 16 Sudoeste 0 -- -- 94
2020-11-02 08:00:00 11.8 10 Sudoeste 16 Sudoeste 0 -- -- 95
2020-11-02 07:00:00 11.9 9 Oeste 18 Noroeste 0 -- -- 94
2020-11-02 06:00:00 12.5 7 Oeste 13 Sudoeste 0 -- -- 93
2020-11-02 05:00:00 13.1 9 Sudoeste 19 Sudoeste 0 -- -- 92
2020-11-02 04:00:00 12.9 6 Sudoeste 14 Sudoeste 0 -- -- 93
2020-11-02 03:00:00 12.4 4 Oeste 8 Oeste 0 -- -- 94
2020-11-02 02:00:00 12.3 4 Sudoeste 10 Oeste 0 -- -- 94
2020-11-02 01:00:00 12.4 7 Sudoeste 12 Sudoeste 0 -- -- 95
2020-11-02 00:00:00 11.1 7 Sudoeste 11 Sudoeste 0 -- -- 95
2020-11-01 23:00:00 10 2 Oeste 6 Oeste 0 -- -- 94
2020-11-01 22:00:00 9.8 0 Calma 0 Calma 0 -- -- 90
2020-11-01 21:00:00 11.5 0 Calma 4 Sudeste 0 -- -- 89
2020-11-01 20:00:00 13.2 0 Calma 6 Sudoeste 0 -- -- 85
2020-11-01 19:00:00 15.1 3 Sudoeste 6 Sudoeste 0 -- -- 83
2020-11-01 18:00:00 16.2 4 Sudoeste 12 Sudoeste 0 -- -- 79
2020-11-01 17:00:00 17.1 5 Oeste 16 Oeste 0 -- -- 76
2020-11-01 16:00:00 16.9 5 Oeste 16 Oeste 0 -- -- 76
2020-11-01 15:00:00 17.5 10 Oeste 19 Oeste 0 -- -- 73
2020-11-01 14:00:00 16.6 7 Oeste 17 Oeste 0 -- -- 77
2020-11-01 13:00:00 15.9 8 Sudoeste 18 Sudoeste 0 -- -- 80
2020-11-01 12:00:00 14.7 11 Sudoeste 19 Oeste 0 -- -- 84
2020-11-01 11:00:00 13.1 11 Sudoeste 17 Sudoeste 0 -- -- 94
2020-11-01 10:00:00 10.7 2 Oeste 6 Sudoeste 0 -- -- 97
2020-11-01 09:00:00 9.4 0 Calma 3 Este 0 -- -- 98
2020-11-01 08:00:00 7.5 2 Este 5 Nordeste 0.2 -- -- 97
2020-11-01 07:00:00 7.1 0 Calma 4 Oeste 0 -- -- 97
2020-11-01 06:00:00 6.8 0 Calma 4 Este 0 -- -- 96
2020-11-01 05:00:00 7.9 0 Calma 11 Oeste 0 -- -- 96
2020-11-01 04:00:00 9.3 6 Sudoeste 14 Sudoeste 0 -- -- 97
2020-11-01 03:00:00 7.3 0 Calma 3 Sudoeste 0 -- -- 96
2020-11-01 02:00:00 8.2 0 Calma 9 Oeste 0 -- -- 95
2020-11-01 01:00:00 6.3 2 Noroeste 7 Sudoeste 0 -- -- 96
2020-11-01 00:00:00 5.5 0 Calma 3 Nordeste 0 -- -- 94
2020-10-31 23:00:00 6.1 0 Calma 2 Nordeste 0 -- -- 93
2020-10-31 22:00:00 7 0 Calma 2 Este 0 -- -- 92
2020-10-31 21:00:00 8.8 2 Sur 3 Sudeste 0 -- -- 90
2020-10-31 20:00:00 10.6 0 Calma 5 Sudeste 0 -- -- 88
2020-10-31 19:00:00 13 0 Calma 6 Oeste 0 -- -- 84
2020-10-31 18:00:00 15.3 4 Noroeste 17 Noroeste 0 -- -- 78
2020-10-31 17:00:00 16.7 10 Oeste 22 Oeste 0 -- -- 74
2020-10-31 16:00:00 17.6 12 Oeste 20 Sudoeste 0 -- -- 69
2020-10-31 15:00:00 16.9 7 Oeste 20 Noroeste 0 -- -- 76
2020-10-31 14:00:00 15.7 5 Oeste 17 Oeste 0 -- -- 77
2020-10-31 13:00:00 16.2 5 Oeste 17 Noroeste 0 -- -- 75
2020-10-31 12:00:00 14.6 6 Oeste 13 Oeste 0 -- -- 79
2020-10-31 11:00:00 11.7 3 Oeste 6 Oeste 0 -- -- 90
2020-10-31 10:00:00 7.1 2 Este 6 Sudeste 0 -- -- 98
2020-10-31 09:00:00 3.3 3 Nordeste 6 Este 0 -- -- 98
2020-10-31 08:00:00 2.3 0 Calma 5 Oeste 0 -- -- 96
2020-10-31 07:00:00 2.4 3 Sudoeste 5 Este 0 -- -- 96
2020-10-31 06:00:00 3.1 0 Calma 5 Este 0 -- -- 96
2020-10-31 05:00:00 3.9 2 Sudoeste 5 Sudoeste 0 -- -- 96
2020-10-31 04:00:00 3.1 0 Calma 3 Sudeste 0 -- -- 95
2020-10-31 03:00:00 3.6 0 Calma 3 Sudeste 0 -- -- 95
2020-10-31 02:00:00 4.5 0 Calma 4 Sudoeste 0 -- -- 93
2020-10-31 01:00:00 4.9 0 Calma 3 Oeste 0 -- -- 93
2020-10-31 00:00:00 5.6 0 Calma 5 Este 0 -- -- 93
2020-10-30 23:00:00 6.8 2 Este 9 Este 0 -- -- 93
2020-10-30 22:00:00 7.8 5 Este 8 Este 0 -- -- 92
2020-10-30 21:00:00 8.5 5 Este 7 Este 0 -- -- 91
2020-10-30 20:00:00 8.8 2 Nordeste 5 Este 0 -- -- 89
2020-10-30 19:00:00 11.6 0 Calma 4 Sur 0 -- -- 80
2020-10-30 18:00:00 16.5 0 Calma 7 Oeste 0 -- -- 69
2020-10-30 17:00:00 17.5 4 Oeste 13 Oeste 0 -- -- 65
2020-10-30 16:00:00 17.4 7 Oeste 22 Oeste 0 -- -- 65
2020-10-30 15:00:00 16.4 8 Oeste 24 Sudoeste 0 -- -- 67
2020-10-30 14:00:00 15.9 13 Oeste 25 Oeste 0 -- -- 67
2020-10-30 13:00:00 14.3 6 Oeste 15 Oeste 0 -- -- 73
2020-10-30 12:00:00 9.7 2 Sudoeste 5 Sudoeste 0 -- -- 98
2020-10-30 11:00:00 5.8 2 Sudoeste 5 Sudoeste 0 -- -- 97
2020-10-30 10:00:00 3.6 0 Calma 3 Oeste 0 -- -- 97
2020-10-30 09:00:00 1.5 2 Nordeste 5 Nordeste 0 -- -- 97
2020-10-30 08:00:00 1.3 2 Nordeste 3 Nordeste 0 -- -- 96
2020-10-30 07:00:00 1.3 0 Calma 0 Calma 0 -- -- 96
2020-10-30 06:00:00 0.7 0 Calma 0 Calma 0 -- -- 96
2020-10-30 05:00:00 0.8 0 Calma 2 Sudeste 0 -- -- 95
2020-10-30 04:00:00 1.1 0 Calma 0 Calma 0 -- -- 95
2020-10-30 03:00:00 1.4 0 Calma 2 Este 0 -- -- 95
2020-10-30 02:00:00 2 0 Calma 3 Este 0 -- -- 95
2020-10-30 01:00:00 2.8 2 Este 4 Este 0 -- -- 95
2020-10-30 00:00:00 3 2 Este 3 Este 0 -- -- 94
2020-10-29 23:00:00 3.8 3 Este 4 Este 0 -- -- 94
2020-10-29 22:00:00 4.3 2 Este 4 Este 0 -- -- 92
2020-10-29 21:00:00 5.9 3 Este 4 Este 0 -- -- 91
2020-10-29 20:00:00 7.8 0 Calma 5 Sudeste 0 -- -- 85
2020-10-29 19:00:00 11 0 Calma 3 Oeste 0 -- -- 79
2020-10-29 18:00:00 14.7 3 Oeste 10 Oeste 0 -- -- 68
2020-10-29 17:00:00 16.1 5 Oeste 13 Oeste 0 -- -- 63
2020-10-29 16:00:00 16.5 6 Noroeste 14 Oeste 0 -- -- 63
2020-10-29 15:00:00 15.7 6 Oeste 15 Oeste 0 -- -- 66
2020-10-29 14:00:00 14.1 6 Noroeste 15 Noroeste 0 -- -- 71
2020-10-29 13:00:00 13.8 6 Noroeste 13 Oeste 0 -- -- 75
2020-10-29 12:00:00 12 5 Oeste 11 Oeste 0 -- -- 81
2020-10-29 11:00:00 8.5 2 Oeste 8 Este 0 -- -- 97
2020-10-29 10:00:00 5.5 5 Nordeste 11 Nordeste 0 -- -- 97
2020-10-29 09:00:00 4.6 6 Este 11 Este 0 -- -- 96
2020-10-29 08:00:00 3.6 0 Calma 7 Sur 0 -- -- 95
2020-10-29 07:00:00 4.1 0 Calma 5 Nordeste 0 -- -- 96
2020-10-29 06:00:00 3.2 4 Este 8 Este 0 -- -- 97
2020-10-29 05:00:00 2.2 0 Calma 2 Este 0 -- -- 94
2020-10-29 04:00:00 2.7 0 Calma 4 Este 0 -- -- 93
2020-10-29 03:00:00 3.8 0 Calma 3 Nordeste 0 -- -- 93
2020-10-29 02:00:00 5.1 0 Calma 7 Sudoeste 0 -- -- 91
2020-10-29 01:00:00 6.8 3 Sudoeste 7 Sudoeste 0 -- -- 90
2020-10-29 00:00:00 7.6 4 Oeste 8 Oeste 0 -- -- 89
2020-10-28 23:00:00 9 5 Sudoeste 10 Sudoeste 0 -- -- 86
2020-10-28 22:00:00 9.9 4 Sudoeste 17 Sudoeste 0 -- -- 84
2020-10-28 21:00:00 10.1 8 Sudoeste 17 Sudoeste 0 -- -- 86
2020-10-28 20:00:00 9.9 3 Oeste 9 Sudoeste 0 -- -- 86
2020-10-28 19:00:00 11.8 3 Sudoeste 18 Oeste 0 -- -- 79
2020-10-28 18:00:00 13.9 10 Oeste 26 Oeste 0 -- -- 71
2020-10-28 17:00:00 15.6 16 Oeste 28 Sudoeste 0.2 -- -- 67
2020-10-28 16:00:00 16.2 16 Oeste 31 Oeste 0 -- -- 67
2020-10-28 15:00:00 15.4 19 Oeste 38 Sudoeste 0 -- -- 71
2020-10-28 14:00:00 14.9 12 Sudoeste 23 Sudoeste 0 -- -- 77
2020-10-28 13:00:00 13.8 10 Sudoeste 19 Oeste 0 -- -- 81
2020-10-28 12:00:00 13.2 11 Oeste 23 Oeste 0 -- -- 83
2020-10-28 11:00:00 12.2 13 Oeste 21 Oeste 0 -- -- 94
2020-10-28 10:00:00 11.4 8 Oeste 17 Oeste 0 -- -- 95
2020-10-28 09:00:00 10.8 8 Sudoeste 17 Sudoeste 0.4 -- -- 95
2020-10-28 08:00:00 10.6 11 Sudoeste 20 Sudoeste 0 -- -- 95
2020-10-28 07:00:00 10.4 10 Sudoeste 18 Sudoeste 0.2 -- -- 94
2020-10-28 06:00:00 10.6 9 Sudoeste 18 Sudoeste 0 -- -- 92
2020-10-28 05:00:00 10.3 7 Sudoeste 16 Sudoeste 0 -- -- 92
2020-10-28 04:00:00 10.3 8 Sudoeste 22 Sur 0 -- -- 91
2020-10-28 03:00:00 10.2 10 Sudoeste 26 Sudoeste 0 -- -- 90
2020-10-28 02:00:00 10.2 13 Sudoeste 26 Sudoeste 0 -- -- 91
2020-10-28 01:00:00 10.4 14 Sudoeste 29 Sudoeste 0 -- -- 89
2020-10-28 00:00:00 10.3 15 Sudoeste 28 Sudoeste 0 -- -- 90
2020-10-27 23:00:00 10.4 13 Sudoeste 23 Sur 0 -- -- 90
2020-10-27 22:00:00 10.4 14 Sudoeste 29 Sudoeste 0 -- -- 89
2020-10-27 21:00:00 10.2 14 Sudoeste 31 Sudoeste 0 -- -- 89
2020-10-27 20:00:00 10 15 Sudoeste 24 Sudoeste 0 -- -- 90
2020-10-27 19:00:00 9.7 12 Sudoeste 21 Sudoeste 0.2 -- -- 91
2020-10-27 18:00:00 10.2 9 Sudoeste 21 Sudoeste 0.4 -- -- 87
2020-10-27 17:00:00 11.2 11 Sudoeste 25 Sudoeste 0 -- -- 79
2020-10-27 16:00:00 11.2 17 Sudoeste 31 Oeste 0 -- -- 78
2020-10-27 15:00:00 11.2 16 Sudoeste 39 Sudoeste 0 -- -- 77
2020-10-27 14:00:00 11.1 18 Sudoeste 37 Oeste 0 -- -- 78
2020-10-27 13:00:00 10.1 19 Oeste 34 Oeste 0 -- -- 81
2020-10-27 12:00:00 9.2 17 Oeste 32 Sudoeste 0 -- -- 83
2020-10-27 11:00:00 8.3 17 Oeste 33 Sudoeste 0 -- -- 85
2020-10-27 10:00:00 7.3 11 Sudoeste 23 Sudoeste 0 -- -- 90
2020-10-27 09:00:00 6.6 11 Sudoeste 23 Sudoeste 0 -- -- 90
2020-10-27 08:00:00 6.4 13 Sudoeste 34 Sudoeste 0 -- -- 89
2020-10-27 07:00:00 6.5 13 Sudoeste 30 Sudoeste 0 -- -- 89
2020-10-27 06:00:00 6.5 14 Oeste 27 Sudoeste 0 -- -- 89
2020-10-27 05:00:00 6.4 14 Sudoeste 25 Sudoeste 0 -- -- 90
2020-10-27 04:00:00 6.1 12 Sudoeste 23 Sudoeste 0 -- -- 91
2020-10-27 03:00:00 5.8 12 Sudoeste 22 Sudoeste 0 -- -- 90
2020-10-27 02:00:00 5.4 9 Sudoeste 15 Sudoeste 0 -- -- 89
2020-10-27 01:00:00 5.4 7 Sudoeste 15 Sudoeste 0 -- -- 89
2020-10-27 00:00:00 6 8 Sudoeste 19 Sudoeste 0 -- -- 87